createdAt,value
2023-05-05T00:02:00.915Z,100000.22
2023-05-05T00:04:29.070Z,100004.59
2023-05-05T00:06:57.413Z,99999.41
2023-05-05T00:09:26.659Z,99998.84
2023-05-05T00:11:54.700Z,99997.22
2023-05-05T00:14:22.584Z,99983.09
2023-05-05T00:16:50.544Z,99995.25
2023-05-05T00:19:18.484Z,99983.91
2023-05-05T00:21:46.417Z,99999.16
2023-05-05T00:24:14.340Z,99997.09
2023-05-05T00:26:43.627Z,99985.28
2023-05-05T00:29:11.525Z,99991.94
2023-05-05T00:31:39.756Z,99991.63
2023-05-05T00:34:07.784Z,99989.69
2023-05-05T00:36:35.977Z,99994.19
2023-05-05T00:39:04.510Z,99985.06
2023-05-05T00:41:32.731Z,99992.41
2023-05-05T00:44:01.990Z,99986.59
2023-05-05T00:46:31.697Z,99994.59
2023-05-05T00:49:00.010Z,99989.91
2023-05-05T00:51:29.392Z,99984.91
2023-05-05T00:53:57.436Z,99989.72
2023-05-05T00:56:27.461Z,99990.13
2023-05-05T00:58:55.675Z,99984.44
2023-05-05T01:01:24.984Z,99983.41
2023-05-05T01:03:52.998Z,99987.44
2023-05-05T01:06:38.575Z,99982.72
2023-05-05T01:09:12.918Z,99975.38
2023-05-05T01:11:52.626Z,99978.81
2023-05-05T01:14:26.112Z,99974.53
2023-05-05T01:17:00.105Z,99972.34
2023-05-05T01:19:50.536Z,99964.44
2023-05-05T01:22:21.854Z,99966.22
2023-05-05T01:25:13.537Z,99964.28
2023-05-05T01:28:01.980Z,99960.25
2023-05-05T01:30:58.802Z,99961.72
2023-05-05T01:33:32.682Z,99960.31
2023-05-05T01:36:07.748Z,99963.63
2023-05-05T01:38:41.899Z,99962.13
2023-05-05T01:41:14.992Z,99936.66
2023-05-05T01:43:47.117Z,99960.25
2023-05-05T01:46:16.379Z,99952.94
2023-05-05T01:48:47.052Z,99958.59
2023-05-05T01:51:17.050Z,99957.09
2023-05-05T01:53:47.209Z,99956.78
2023-05-05T01:56:16.888Z,99960.25
2023-05-05T01:58:47.791Z,99956.03
2023-05-05T02:01:16.949Z,99957.03
2023-05-05T02:03:47.430Z,99950.69
2023-05-05T02:06:17.543Z,99943.47
2023-05-05T02:08:47.287Z,99950.53
2023-05-05T02:11:16.704Z,99938.06
2023-05-05T02:13:45.790Z,99955.41
2023-05-05T02:16:15.047Z,99950.81
2023-05-05T02:18:44.246Z,99950.28
2023-05-05T02:21:14.815Z,99950.84
2023-05-05T02:23:42.727Z,99947.38
2023-05-05T02:26:13.403Z,99946.13
2023-05-05T02:28:43.600Z,99949.53
2023-05-05T02:31:15.017Z,99955.22
2023-05-05T02:33:45.466Z,99949.84
2023-05-05T02:36:20.378Z,99943.78
2023-05-05T02:38:52.992Z,99933.13
2023-05-05T02:41:22.800Z,99954.03
2023-05-05T02:43:52.293Z,99947.81
2023-05-05T02:46:20.614Z,99943.50
2023-05-05T02:48:48.554Z,99928.81
2023-05-05T02:51:17.772Z,99942.31
2023-05-05T02:53:45.906Z,99941.84
2023-05-05T02:56:27.996Z,99944.59
2023-05-05T02:59:01.490Z,99941.94
2023-05-05T03:01:40.658Z,99941.28
2023-05-05T03:04:13.178Z,99920.91
2023-05-05T03:06:46.735Z,99945.94
2023-05-05T03:09:22.354Z,99949.03
2023-05-05T03:11:54.388Z,99939.06
2023-05-05T03:14:23.778Z,99947.63
2023-05-05T03:16:51.909Z,99936.28
2023-05-05T03:19:21.341Z,99946.53
2023-05-05T03:21:52.511Z,99945.56
2023-05-05T03:24:21.699Z,99946.56
2023-05-05T03:26:50.697Z,99949.84
2023-05-05T03:29:18.699Z,99947.50
2023-05-05T03:31:46.863Z,99949.00
2023-05-05T03:34:14.768Z,99958.69
2023-05-05T03:36:42.830Z,99952.72
2023-05-05T03:39:12.025Z,99963.47
2023-05-05T03:41:39.953Z,99965.88
2023-05-05T03:44:07.983Z,99968.41
2023-05-05T03:46:36.088Z,99967.28
2023-05-05T03:49:03.974Z,99972.00
2023-05-05T03:51:32.220Z,99970.34
2023-05-05T03:54:00.089Z,99970.34
2023-05-05T03:56:29.380Z,99972.25
2023-05-05T03:58:57.237Z,99971.03
2023-05-05T04:01:25.364Z,99982.09
2023-05-05T04:03:53.335Z,99971.94
2023-05-05T04:06:21.329Z,99977.59
2023-05-05T04:08:49.256Z,99980.09
2023-05-05T04:11:17.317Z,99983.22
2023-05-05T04:13:47.096Z,99980.91
2023-05-05T04:16:15.129Z,99972.34
2023-05-05T04:18:43.065Z,99981.78
2023-05-05T04:21:11.088Z,99984.66
2023-05-05T04:23:39.017Z,99991.16
2023-05-05T04:26:07.005Z,99994.38
2023-05-05T04:28:34.876Z,99988.25
2023-05-05T04:31:05.168Z,99972.47
2023-05-05T04:33:33.263Z,99988.25
2023-05-05T04:36:01.173Z,99994.91
2023-05-05T04:38:29.090Z,99992.53
2023-05-05T04:40:57.058Z,99975.88
2023-05-05T04:43:25.024Z,100002.25
2023-05-05T04:45:56.128Z,100005.13
2023-05-05T04:48:25.537Z,99993.72
2023-05-05T04:50:53.512Z,99997.31
2023-05-05T04:53:21.407Z,99993.56
2023-05-05T04:55:49.385Z,99993.56
2023-05-05T04:58:17.400Z,99986.97
2023-05-05T05:00:45.348Z,99986.25
2023-05-05T05:03:13.269Z,100000.16
2023-05-05T05:05:42.830Z,99988.78
2023-05-05T05:08:10.884Z,99999.34
2023-05-05T05:10:38.820Z,99997.97
2023-05-05T05:13:06.790Z,99989.53
2023-05-05T05:15:34.757Z,99987.28
2023-05-05T05:18:02.871Z,100011.09
2023-05-05T05:20:31.326Z,100010.13
2023-05-05T05:23:02.145Z,100020.25
2023-05-05T05:25:30.417Z,99990.19
2023-05-05T05:28:08.830Z,100010.28
2023-05-05T05:30:37.799Z,100004.28
2023-05-05T05:33:05.971Z,100010.41
2023-05-05T05:35:33.986Z,100009.75
2023-05-05T05:38:03.314Z,100015.63
2023-05-05T05:40:31.575Z,100019.97
2023-05-05T05:42:59.506Z,100020.50
2023-05-05T05:45:27.503Z,100019.56
2023-05-05T05:47:55.571Z,100026.75
2023-05-05T05:50:24.627Z,100025.38
2023-05-05T05:52:52.576Z,100024.25
2023-05-05T05:55:22.011Z,100028.31
2023-05-05T05:57:49.967Z,100024.75
2023-05-05T06:00:18.165Z,100007.13
2023-05-05T06:02:46.087Z,100022.97
2023-05-05T06:05:13.975Z,100025.75
2023-05-05T06:07:41.909Z,100021.34
2023-05-05T06:10:25.970Z,100020.63
2023-05-05T06:12:56.490Z,100021.16
2023-05-05T06:15:25.532Z,100028.66
2023-05-05T06:17:53.578Z,100019.53
2023-05-05T06:20:21.533Z,100027.53
2023-05-05T06:22:49.449Z,100024.78
2023-05-05T06:25:17.801Z,100025.72
2023-05-05T06:27:46.000Z,100036.25
2023-05-05T06:30:15.845Z,100018.78
2023-05-05T06:32:43.784Z,100017.94
2023-05-05T06:35:11.893Z,100015.69
2023-05-05T06:37:39.911Z,100024.81
2023-05-05T06:40:10.559Z,100026.06
2023-05-05T06:42:38.574Z,100020.75
2023-05-05T06:45:07.370Z,100025.59
2023-05-05T06:47:37.281Z,100019.81
2023-05-05T06:50:06.002Z,100019.28
2023-05-05T06:52:34.157Z,99997.88
2023-05-05T06:55:02.057Z,100017.84
2023-05-05T06:57:29.961Z,100015.28
2023-05-05T06:59:57.939Z,100017.59
2023-05-05T07:02:26.926Z,100013.44
2023-05-05T07:04:56.446Z,100020.22
2023-05-05T07:07:24.503Z,100017.41
2023-05-05T07:09:52.502Z,100013.28
2023-05-05T07:12:20.428Z,100022.72
2023-05-05T07:14:48.370Z,100018.75
2023-05-05T07:17:16.312Z,100019.19
2023-05-05T07:19:44.317Z,100016.91
2023-05-05T07:22:13.588Z,100021.38
2023-05-05T07:24:41.660Z,100015.63
2023-05-05T07:27:09.725Z,100024.06
2023-05-05T07:29:37.658Z,100023.75
2023-05-05T07:32:06.049Z,100016.53
2023-05-05T07:34:34.719Z,100027.41
2023-05-05T07:37:04.149Z,100019.47
2023-05-05T07:39:34.121Z,100016.59
2023-05-05T07:42:02.494Z,100025.25
2023-05-05T07:44:30.611Z,100027.97
2023-05-05T07:46:58.551Z,100027.50
2023-05-05T07:49:26.849Z,100022.03
2023-05-05T07:51:55.492Z,100032.31
2023-05-05T07:54:23.455Z,100025.53
2023-05-05T07:56:52.776Z,100033.22
2023-05-05T07:59:20.883Z,100016.53
2023-05-05T08:01:48.818Z,100012.72
2023-05-05T08:04:16.794Z,100028.44
2023-05-05T08:06:44.684Z,100024.38
2023-05-05T08:09:12.769Z,100024.38
2023-05-05T08:11:40.905Z,100018.72
2023-05-05T08:14:10.204Z,100018.63
2023-05-05T08:16:38.165Z,100016.31
2023-05-05T08:19:14.524Z,100014.31
2023-05-05T08:21:49.448Z,100018.00
2023-05-05T08:24:17.425Z,100014.84
2023-05-05T08:26:45.342Z,100010.25
2023-05-05T08:29:14.582Z,100002.63
2023-05-05T08:31:42.671Z,100005.44
2023-05-05T08:34:10.871Z,100001.47
2023-05-05T08:36:38.975Z,100003.47
2023-05-05T08:39:07.283Z,100004.28
2023-05-05T08:41:35.537Z,100001.63
2023-05-05T08:44:03.583Z,100006.25
2023-05-05T08:46:33.302Z,100006.75
2023-05-05T08:49:03.846Z,100010.75
2023-05-05T08:51:38.581Z,100003.13
2023-05-05T08:54:08.312Z,100003.94
2023-05-05T08:56:41.551Z,100005.44
2023-05-05T08:59:11.162Z,100009.41
2023-05-05T09:01:42.736Z,99999.31
2023-05-05T09:04:11.088Z,100001.13
2023-05-05T09:06:39.147Z,99981.72
2023-05-05T09:09:08.374Z,99997.16
2023-05-05T09:11:37.553Z,100004.56
2023-05-05T09:14:05.445Z,99995.75
2023-05-05T09:16:33.484Z,100002.56
2023-05-05T09:19:06.303Z,99994.66
2023-05-05T09:21:34.321Z,99986.78
2023-05-05T09:24:08.589Z,99991.47
2023-05-05T09:26:38.825Z,99987.66
2023-05-05T09:29:07.314Z,99985.78
2023-05-05T09:31:36.424Z,99984.25
2023-05-05T09:34:15.497Z,99976.69
2023-05-05T09:36:48.194Z,99981.97
2023-05-05T09:39:18.001Z,99974.44
2023-05-05T09:41:47.014Z,99978.28
2023-05-05T09:44:17.062Z,99986.56
2023-05-05T09:46:52.618Z,99968.94
2023-05-05T09:49:25.640Z,99977.81
2023-05-05T09:51:54.247Z,99962.44
2023-05-05T09:54:26.528Z,99968.00
2023-05-05T09:56:54.554Z,99964.47
2023-05-05T09:59:23.123Z,99951.44
2023-05-05T10:01:52.428Z,99962.00
2023-05-05T10:04:31.588Z,99957.97
2023-05-05T10:07:00.298Z,99943.31
2023-05-05T10:09:29.087Z,99951.56
2023-05-05T10:11:59.016Z,99946.44
2023-05-05T10:14:28.803Z,99943.97
2023-05-05T10:16:56.953Z,99948.63
2023-05-05T10:19:28.996Z,99933.28
2023-05-05T10:22:03.946Z,99934.97
2023-05-05T10:24:39.112Z,99922.09
2023-05-05T10:27:13.704Z,99914.38
2023-05-05T10:29:49.751Z,99924.38
2023-05-05T10:32:47.445Z,99914.69
2023-05-05T10:35:17.933Z,99919.06
2023-05-05T10:37:46.623Z,99913.72
2023-05-05T10:40:15.920Z,99911.91
2023-05-05T10:42:44.729Z,99916.47
2023-05-05T10:45:12.685Z,99910.00
2023-05-05T10:47:41.445Z,99904.13
2023-05-05T10:50:19.193Z,99901.63
2023-05-05T10:52:56.754Z,99900.69
2023-05-05T10:55:33.397Z,99900.34
2023-05-05T10:58:01.293Z,99903.06
2023-05-05T11:00:52.375Z,99895.75
2023-05-05T11:03:22.026Z,99896.13
2023-05-05T11:06:13.651Z,99887.59
2023-05-05T11:08:43.033Z,99887.56
2023-05-05T11:11:11.779Z,99883.97
2023-05-05T11:13:40.602Z,99880.97
2023-05-05T11:16:40.849Z,99868.88
2023-05-05T11:19:42.267Z,99876.75
2023-05-05T11:22:11.787Z,99882.22
2023-05-05T11:24:40.686Z,99861.34
2023-05-05T11:27:08.640Z,99877.78
2023-05-05T11:30:11.041Z,99874.09
2023-05-05T11:32:39.156Z,99863.22
2023-05-05T11:35:08.018Z,99863.69
2023-05-05T11:37:38.654Z,99861.16
2023-05-05T11:40:17.725Z,99853.75
2023-05-05T11:42:46.379Z,99845.28
2023-05-05T11:45:22.502Z,99846.59
2023-05-05T11:47:50.907Z,99849.19
2023-05-05T11:50:22.995Z,99848.47
2023-05-05T11:52:52.399Z,99836.06
2023-05-05T11:55:24.075Z,99841.59
2023-05-05T11:57:52.175Z,99831.78
2023-05-05T12:00:20.921Z,99831.06
2023-05-05T12:02:57.664Z,99828.44
2023-05-05T12:05:25.891Z,99825.16
2023-05-05T12:07:59.676Z,99828.19
2023-05-05T12:10:28.152Z,99806.97
2023-05-05T12:12:56.136Z,99821.00
2023-05-05T12:15:31.952Z,99811.69
2023-05-05T12:18:02.319Z,99816.00
2023-05-05T12:20:32.398Z,99802.00
2023-05-05T12:23:05.678Z,99795.72
2023-05-05T12:25:38.216Z,99810.69
2023-05-05T12:28:07.257Z,99807.19
2023-05-05T12:30:35.978Z,99810.84
2023-05-05T12:33:05.177Z,99802.38
2023-05-05T12:35:33.540Z,99799.56
2023-05-05T12:38:01.667Z,99793.19
2023-05-05T12:40:51.780Z,99789.94
2023-05-05T12:43:30.550Z,99797.56
2023-05-05T12:46:06.649Z,99789.03
2023-05-05T12:48:35.833Z,99797.19
2023-05-05T12:51:28.206Z,99789.41
2023-05-05T12:54:07.235Z,99790.13
2023-05-05T12:56:40.969Z,99789.03
2023-05-05T12:59:10.319Z,99785.19
2023-05-05T13:01:49.735Z,99790.88
2023-05-05T13:04:18.549Z,99791.25
2023-05-05T13:06:49.474Z,99785.09
2023-05-05T13:09:27.319Z,99780.97
2023-05-05T13:11:56.609Z,99783.81
2023-05-05T13:14:24.716Z,99780.97
2023-05-05T13:16:52.655Z,99778.38
2023-05-05T13:19:20.607Z,99782.50
2023-05-05T13:21:48.623Z,99772.31
2023-05-05T13:26:47.748Z,99769.50
2023-05-05T13:29:17.546Z,99767.41
2023-05-05T13:31:46.217Z,99763.44
2023-05-05T13:34:14.400Z,99762.22
2023-05-05T13:36:42.352Z,99762.88
2023-05-05T13:39:10.300Z,99758.56
2023-05-05T13:41:38.212Z,99757.44
2023-05-05T13:44:06.152Z,99755.56
2023-05-05T13:46:35.499Z,99751.91
2023-05-05T13:49:03.501Z,99753.44
2023-05-05T13:51:31.501Z,99757.16
2023-05-05T13:54:00.783Z,99736.50
2023-05-05T13:56:29.250Z,99754.63
2023-05-05T13:58:57.311Z,99746.75
2023-05-05T14:01:25.272Z,99741.56
2023-05-05T14:03:57.158Z,99740.91
2023-05-05T14:06:25.989Z,99736.09
2023-05-05T14:08:54.075Z,99742.78
2023-05-05T14:11:22.110Z,99741.41
2023-05-05T14:13:50.063Z,99733.34
2023-05-05T14:16:17.967Z,99728.31
2023-05-05T14:18:45.902Z,99727.13
2023-05-05T14:21:15.264Z,99723.34
2023-05-05T14:23:43.292Z,99722.72
2023-05-05T14:26:11.228Z,99728.50
2023-05-05T14:28:39.104Z,99728.03
2023-05-05T14:31:07.072Z,99726.75
2023-05-05T14:33:35.045Z,99727.50
2023-05-05T14:36:03.068Z,99723.81
2023-05-05T14:38:32.460Z,99721.63
2023-05-05T14:41:00.410Z,99714.50
2023-05-05T14:43:28.292Z,99718.97
2023-05-05T14:45:58.292Z,99716.50
2023-05-05T14:48:26.371Z,99713.72
2023-05-05T14:50:54.222Z,99722.81
2023-05-05T14:53:22.180Z,99714.88
2023-05-05T14:55:51.426Z,99713.38
2023-05-05T14:58:22.466Z,99714.59
2023-05-05T15:00:50.335Z,99716.13
2023-05-05T15:03:18.428Z,99714.59
2023-05-05T15:05:46.466Z,99707.72
2023-05-05T15:08:14.897Z,99707.66
2023-05-05T15:10:42.784Z,99706.72
2023-05-05T15:13:12.235Z,99702.19
2023-05-05T15:15:40.517Z,99704.19
2023-05-05T15:18:08.528Z,99704.19
2023-05-05T15:20:36.461Z,99704.25
2023-05-05T15:23:04.463Z,99709.25
2023-05-05T15:25:32.478Z,99705.41
2023-05-05T15:28:00.964Z,99706.72
2023-05-05T15:30:30.350Z,99706.69
2023-05-05T15:32:58.292Z,99694.91
2023-05-05T15:35:26.483Z,99703.09
2023-05-05T15:37:54.634Z,99695.47
2023-05-05T15:40:22.968Z,99698.44
2023-05-05T15:42:50.939Z,99693.44
2023-05-05T15:45:18.824Z,99700.13
2023-05-05T15:47:48.108Z,99698.69
2023-05-05T15:50:16.202Z,99692.97
2023-05-05T15:52:44.305Z,99693.56
2023-05-05T15:55:12.678Z,99698.28
2023-05-05T15:57:40.766Z,99695.66
2023-05-05T16:00:10.366Z,99690.72
2023-05-05T16:02:38.425Z,99697.56
2023-05-05T16:05:08.389Z,99698.69
2023-05-05T16:07:36.472Z,99698.56
2023-05-05T16:10:04.548Z,99686.75
2023-05-05T16:12:32.523Z,99707.72
2023-05-05T16:15:00.445Z,99704.53
2023-05-05T16:17:28.605Z,99712.44
2023-05-05T16:19:56.592Z,99713.50
2023-05-05T16:22:25.821Z,99712.56
2023-05-05T16:24:53.781Z,99720.44
2023-05-05T16:27:21.783Z,99713.00
2023-05-05T16:29:49.770Z,99701.31
2023-05-05T16:32:17.811Z,99708.72
2023-05-05T16:34:45.797Z,99715.22
2023-05-05T16:37:13.780Z,99720.31
2023-05-05T16:39:43.052Z,99718.03
2023-05-05T16:42:11.061Z,99715.22
2023-05-05T16:44:38.897Z,99721.03
2023-05-05T16:47:06.802Z,99722.69
2023-05-05T16:49:34.644Z,99719.66
2023-05-05T16:52:02.678Z,99721.19
2023-05-05T16:54:30.745Z,99727.91
2023-05-05T16:57:00.177Z,99724.75
2023-05-05T16:59:29.665Z,99716.88
2023-05-05T17:01:59.010Z,99731.00
2023-05-05T17:04:27.121Z,99724.31
2023-05-05T17:06:56.358Z,99732.25
2023-05-05T17:09:25.006Z,99710.72
2023-05-05T17:11:52.998Z,99729.13
2023-05-05T17:14:22.285Z,99729.00
2023-05-05T17:16:50.220Z,99725.38
2023-05-05T17:19:18.132Z,99714.66
2023-05-05T17:21:46.137Z,99739.22
2023-05-05T17:24:14.077Z,99740.09
2023-05-05T17:26:42.062Z,99747.16
2023-05-05T17:29:12.290Z,99746.66
2023-05-05T17:31:42.940Z,99746.66
2023-05-05T17:34:10.948Z,99755.91
2023-05-05T17:36:38.916Z,99752.47
2023-05-05T17:39:06.962Z,99756.94
2023-05-05T17:41:35.055Z,99749.34
2023-05-05T17:44:02.973Z,99760.25
2023-05-05T17:46:30.947Z,99761.25
2023-05-05T17:49:00.637Z,99763.25
2023-05-05T17:51:28.782Z,99766.19
2023-05-05T17:53:56.706Z,99773.13
2023-05-05T17:56:24.612Z,99770.00
2023-05-05T17:58:53.101Z,99768.66
2023-05-05T18:01:22.257Z,99773.97
2023-05-05T18:03:50.408Z,99776.09
2023-05-05T18:06:19.898Z,99771.13
2023-05-05T18:08:47.772Z,99779.41
2023-05-05T18:11:15.741Z,99779.75
2023-05-05T18:13:44.006Z,99784.19
2023-05-05T18:16:11.936Z,99778.75
2023-05-05T18:18:40.597Z,99788.88
2023-05-05T18:21:12.285Z,99777.66
2023-05-05T18:23:41.718Z,99789.81
2023-05-05T18:26:09.939Z,99792.97
2023-05-05T18:28:38.018Z,99795.78
2023-05-05T18:31:06.301Z,99787.22
2023-05-05T18:33:34.345Z,99791.81
2023-05-05T18:36:03.712Z,99794.44
2023-05-05T18:38:32.724Z,99801.25
2023-05-05T18:41:02.023Z,99805.53
2023-05-05T18:43:29.939Z,99801.25
2023-05-05T18:45:57.910Z,99800.06
2023-05-05T18:48:26.267Z,99805.53
2023-05-05T18:50:54.251Z,99801.06
2023-05-05T18:53:22.390Z,99809.31
2023-05-05T18:55:50.288Z,99811.16
2023-05-05T18:58:19.949Z,99815.13
2023-05-05T19:00:48.005Z,99807.50
2023-05-05T19:03:16.331Z,99817.25
2023-05-05T19:05:44.522Z,99828.16
2023-05-05T19:08:12.473Z,99805.69
2023-05-05T19:10:40.370Z,99819.91
2023-05-05T19:13:09.479Z,99819.75
2023-05-05T19:15:38.984Z,99819.25
2023-05-05T19:18:07.238Z,99816.06
2023-05-05T19:20:35.191Z,99826.19
2023-05-05T19:23:04.448Z,99816.91
2023-05-05T19:25:32.437Z,99819.72
2023-05-05T19:28:00.335Z,99822.03
2023-05-05T19:30:28.459Z,99818.72
2023-05-05T19:32:57.903Z,99831.09
2023-05-05T19:35:26.188Z,99826.13
2023-05-05T19:37:54.122Z,99825.34
2023-05-05T19:40:22.161Z,99827.63
2023-05-05T19:42:50.206Z,99820.69
2023-05-05T19:45:18.394Z,99821.34
2023-05-05T19:47:46.372Z,99815.88
2023-05-05T19:50:16.632Z,99820.81
2023-05-05T19:52:44.570Z,99816.06
2023-05-05T19:55:13.217Z,99817.19
2023-05-05T19:57:41.755Z,99822.63
2023-05-05T20:00:11.069Z,99820.31
2023-05-05T20:02:39.315Z,99815.34
2023-05-05T20:05:08.082Z,99817.00
2023-05-05T20:07:37.364Z,99796.38
2023-05-05T20:10:07.352Z,99818.16
2023-05-05T20:12:35.534Z,99812.72
2023-05-05T20:15:03.454Z,99817.00
2023-05-05T20:17:31.361Z,99816.53
2023-05-05T20:19:59.233Z,99814.88
2023-05-05T20:22:27.171Z,99818.38
2023-05-05T20:24:56.440Z,99819.69
2023-05-05T20:27:25.931Z,99814.69
2023-05-05T20:29:54.657Z,99815.84
2023-05-05T20:32:22.648Z,99819.63
2023-05-05T20:34:50.529Z,99819.84
2023-05-05T20:37:18.528Z,99807.47
2023-05-05T20:39:47.330Z,99813.09
2023-05-05T20:42:16.600Z,99811.25
2023-05-05T20:44:44.499Z,99809.72
2023-05-05T20:47:12.602Z,99803.09
2023-05-05T20:49:40.743Z,99798.94
2023-05-05T20:52:08.668Z,99797.59
2023-05-05T20:54:36.650Z,99802.41
2023-05-05T20:57:04.605Z,99804.53
2023-05-05T20:59:33.913Z,99796.78
2023-05-05T21:02:01.904Z,99805.72
2023-05-05T21:04:29.889Z,99805.53
2023-05-05T21:06:58.426Z,99786.66
2023-05-05T21:09:26.720Z,99811.59
2023-05-05T21:11:54.762Z,99805.66
2023-05-05T21:14:23.423Z,99790.75
2023-05-05T21:16:52.789Z,99805.47
2023-05-05T21:19:21.270Z,99801.97
2023-05-05T21:21:49.521Z,99815.88
2023-05-05T21:24:17.492Z,99813.41
2023-05-05T21:26:46.048Z,99813.91
2023-05-05T21:29:13.900Z,99811.47
2023-05-05T21:31:41.825Z,99802.09
2023-05-05T21:34:11.489Z,99815.41
2023-05-05T21:36:39.487Z,99811.00
2023-05-05T21:39:07.514Z,99809.66
2023-05-05T21:41:35.461Z,99807.16
2023-05-05T21:44:03.585Z,99811.75
2023-05-05T21:46:31.615Z,99806.31
2023-05-05T21:48:59.580Z,99802.41
2023-05-05T21:51:28.863Z,99806.63
2023-05-05T21:53:57.328Z,99812.31
2023-05-05T21:56:25.436Z,99802.88
2023-05-05T21:58:53.340Z,99806.63
2023-05-05T22:01:21.251Z,99812.56
2023-05-05T22:03:49.264Z,99806.47
2023-05-05T22:06:18.553Z,99805.66
2023-05-05T22:08:48.053Z,99806.63
2023-05-05T22:11:16.141Z,99799.53
2023-05-05T22:13:44.007Z,99807.25
2023-05-05T22:16:12.824Z,99804.81
2023-05-05T22:18:40.772Z,99805.63
2023-05-05T22:21:08.651Z,99803.66
2023-05-05T22:23:37.255Z,99785.47
2023-05-05T22:26:06.755Z,99802.31
2023-05-05T22:28:34.795Z,99798.34
2023-05-05T22:31:02.815Z,99802.88
2023-05-05T22:33:30.787Z,99802.00
2023-05-05T22:35:58.754Z,99804.50
2023-05-05T22:38:26.953Z,99797.59
2023-05-05T22:40:54.805Z,99794.41
2023-05-05T22:43:24.169Z,99783.31
2023-05-05T22:45:52.316Z,99788.81
2023-05-05T22:48:20.295Z,99784.13
2023-05-05T22:50:48.227Z,99784.16
2023-05-05T22:53:16.141Z,99784.50
2023-05-05T22:55:44.117Z,99778.56
2023-05-05T22:58:11.991Z,99769.41
2023-05-05T23:00:41.288Z,99770.63
2023-05-05T23:03:09.671Z,99762.38
2023-05-05T23:05:37.528Z,99766.16
2023-05-05T23:08:06.727Z,99767.75
2023-05-05T23:10:34.818Z,99770.38
2023-05-05T23:13:02.835Z,99763.78
2023-05-05T23:15:31.177Z,99768.22
2023-05-05T23:18:00.521Z,99764.56
2023-05-05T23:20:28.972Z,99759.28
2023-05-05T23:22:57.085Z,99755.81
2023-05-05T23:25:25.011Z,99754.81
2023-05-05T23:27:52.967Z,99751.00
2023-05-05T23:30:21.099Z,99755.03
2023-05-05T23:32:49.205Z,99735.00
2023-05-05T23:35:18.555Z,99747.16
2023-05-05T23:37:46.454Z,99740.09
2023-05-05T23:40:14.388Z,99746.84
2023-05-05T23:42:42.279Z,99740.69
2023-05-05T23:45:11.544Z,99738.16
2023-05-05T23:47:39.663Z,99731.25
2023-05-05T23:50:08.974Z,99741.38
2023-05-05T23:52:38.266Z,99741.69
2023-05-05T23:55:07.513Z,99742.09
2023-05-05T23:57:36.463Z,99745.00
